createdAt,value
2022-12-18T00:00:44.824Z,-4.71
2022-12-18T00:01:44.984Z,-4.74
2022-12-18T00:02:45.040Z,-4.74
2022-12-18T00:03:45.738Z,-4.78
2022-12-18T00:04:44.960Z,-4.77
2022-12-18T00:05:44.992Z,-4.76
2022-12-18T00:06:45.027Z,-4.76
2022-12-18T00:07:45.050Z,-4.76
2022-12-18T00:08:45.090Z,-4.79
2022-12-18T00:09:45.119Z,-4.79
2022-12-18T00:10:45.154Z,-4.8
2022-12-18T00:11:45.190Z,-4.81
2022-12-18T00:12:45.203Z,-4.84
2022-12-18T00:13:45.237Z,-4.83
2022-12-18T00:14:45.264Z,-4.81
2022-12-18T00:15:45.332Z,-4.79
2022-12-18T00:16:45.339Z,-4.8
2022-12-18T00:17:45.374Z,-4.82
2022-12-18T00:18:45.402Z,-4.79
2022-12-18T00:19:45.425Z,-4.86
2022-12-18T00:20:45.464Z,-4.86
2022-12-18T00:21:45.490Z,-4.86
2022-12-18T00:22:45.556Z,-4.86
2022-12-18T00:23:45.563Z,-4.87
2022-12-18T00:24:45.604Z,-4.86
2022-12-18T00:25:45.624Z,-4.84
2022-12-18T00:26:45.659Z,-4.85
2022-12-18T00:27:45.709Z,-4.86
2022-12-18T00:28:45.728Z,-4.84
2022-12-18T00:29:45.762Z,-4.85
2022-12-18T00:30:45.786Z,-4.85
2022-12-18T00:31:45.876Z,-4.87
2022-12-18T00:32:45.850Z,-4.87
2022-12-18T00:33:45.881Z,-4.87
2022-12-18T00:34:45.907Z,-4.87
2022-12-18T00:35:45.949Z,-4.92
2022-12-18T00:36:45.984Z,-4.9
2022-12-18T00:37:46.031Z,-4.91
2022-12-18T00:38:46.057Z,-4.91
2022-12-18T00:39:46.092Z,-4.91
2022-12-18T00:40:46.116Z,-4.97
2022-12-18T00:41:46.151Z,-4.97
2022-12-18T00:42:46.195Z,-4.97
2022-12-18T00:43:46.206Z,-4.97
2022-12-18T00:44:46.225Z,-4.97
2022-12-18T00:45:46.289Z,-5
2022-12-18T00:46:46.294Z,-4.99
2022-12-18T00:47:46.337Z,-4.96
2022-12-18T00:48:46.367Z,-4.95
2022-12-18T00:49:46.400Z,-4.95
2022-12-18T00:50:46.425Z,-4.98
2022-12-18T00:51:46.445Z,-4.98
2022-12-18T00:52:46.479Z,-4.98
2022-12-18T00:53:46.507Z,-5
2022-12-18T00:54:46.541Z,-4.99
2022-12-18T00:55:46.584Z,-5.01
2022-12-18T00:56:50.010Z,-5
2022-12-18T00:57:46.625Z,-5.02
2022-12-18T00:58:46.660Z,-5.02
2022-12-18T00:59:46.682Z,-5.02
2022-12-18T01:00:46.785Z,-5.04
2022-12-18T01:01:47.144Z,-5.06
2022-12-18T01:02:46.898Z,-5.04
2022-12-18T01:03:46.834Z,-5.02
2022-12-18T01:04:46.847Z,-5.04
2022-12-18T01:05:46.881Z,-5.03
2022-12-18T01:06:46.911Z,-5.05
2022-12-18T01:07:46.928Z,-5.04
2022-12-18T01:08:46.971Z,-5.04
2022-12-18T01:09:46.988Z,-5.03
2022-12-18T01:10:47.011Z,-5
2022-12-18T01:11:47.035Z,-5.02
2022-12-18T01:12:47.115Z,-5.04
2022-12-18T01:13:47.091Z,-5.07
2022-12-18T01:14:47.123Z,-5.07
2022-12-18T01:15:47.164Z,-5.1
2022-12-18T01:16:47.265Z,-5.12
2022-12-18T01:17:47.253Z,-5.06
2022-12-18T01:18:47.272Z,-5.06
2022-12-18T01:19:47.308Z,-5.05
2022-12-18T01:20:47.336Z,-5.04
2022-12-18T01:21:47.362Z,-5.09
2022-12-18T01:22:47.392Z,-5.09
2022-12-18T01:23:47.429Z,-5.11
2022-12-18T01:24:47.460Z,-5.1
2022-12-18T01:25:47.489Z,-5.1
2022-12-18T01:26:47.522Z,-5.08
2022-12-18T01:27:47.566Z,-5.08
2022-12-18T01:28:47.589Z,-5.1
2022-12-18T01:29:47.612Z,-5.12
2022-12-18T01:30:47.655Z,-5.09
2022-12-18T01:31:47.772Z,-5.09
2022-12-18T01:32:47.725Z,-5.09
2022-12-18T01:33:47.748Z,-5.1
2022-12-18T01:34:47.775Z,-5.09
2022-12-18T01:35:47.810Z,-5.1
2022-12-18T01:36:47.835Z,-5.1
2022-12-18T01:37:47.888Z,-5.11
2022-12-18T01:38:47.931Z,-5.1
2022-12-18T01:39:47.931Z,-5.1
2022-12-18T01:40:47.970Z,-5.05
2022-12-18T01:41:48.004Z,-5.05
2022-12-18T01:42:48.027Z,-5.08
2022-12-18T01:43:48.082Z,-5.12
2022-12-18T01:44:48.114Z,-5.11
2022-12-18T01:45:48.220Z,-5.11
2022-12-18T01:46:48.167Z,-5.11
2022-12-18T01:47:48.201Z,-5.11
2022-12-18T01:48:48.239Z,-5.05
2022-12-18T01:49:48.301Z,-5.05
2022-12-18T01:50:48.317Z,-5.04
2022-12-18T01:51:48.349Z,-5.06
2022-12-18T01:52:48.411Z,-5.07
2022-12-18T01:53:48.403Z,-5.07
2022-12-18T01:54:48.436Z,-5.09
2022-12-18T01:55:48.465Z,-5.09
2022-12-18T01:56:48.502Z,-5.08
2022-12-18T01:57:48.556Z,-5.08
2022-12-18T01:58:48.597Z,-5.09
2022-12-18T01:59:48.593Z,-5.09
2022-12-18T02:00:48.750Z,-5.1
2022-12-18T02:01:48.770Z,-5.09
2022-12-18T02:02:48.775Z,-5.09
2022-12-18T02:03:48.735Z,-5.07
2022-12-18T02:04:49.710Z,-5.09
2022-12-18T02:05:48.773Z,-5.08
2022-12-18T02:06:48.789Z,-5.1
2022-12-18T02:07:48.828Z,-5.11
2022-12-18T02:08:48.857Z,-5.1
2022-12-18T02:09:48.895Z,-5.09
2022-12-18T02:10:48.923Z,-5.07
2022-12-18T02:11:48.948Z,-5.07
2022-12-18T02:12:48.985Z,-5.11
2022-12-18T02:13:49.013Z,-5.09
2022-12-18T02:14:49.054Z,-5.13
2022-12-18T02:15:49.082Z,-5.14
2022-12-18T02:16:49.219Z,-5.14
2022-12-18T02:17:49.136Z,-5.11
2022-12-18T02:18:49.208Z,-5.11
2022-12-18T02:19:49.191Z,-5.12
2022-12-18T02:20:49.230Z,-5.12
2022-12-18T02:21:49.256Z,-5.17
2022-12-18T02:22:49.271Z,-5.15
2022-12-18T02:23:49.332Z,-5.2
2022-12-18T02:24:49.362Z,-5.2
2022-12-18T02:25:49.365Z,-5.18
2022-12-18T02:26:49.403Z,-5.19
2022-12-18T02:27:49.429Z,-5.19
2022-12-18T02:28:49.465Z,-5.19
2022-12-18T02:29:54.363Z,-5.2
2022-12-18T02:30:49.544Z,-5.2
2022-12-18T02:31:49.547Z,-5.2
2022-12-18T02:32:49.580Z,-5.2
2022-12-18T02:33:49.617Z,-5.19
2022-12-18T02:34:49.641Z,-5.19
2022-12-18T02:35:49.671Z,-5.19
2022-12-18T02:36:49.708Z,-5.19
2022-12-18T02:37:49.758Z,-5.2
2022-12-18T02:38:49.767Z,-5.23
2022-12-18T02:39:49.796Z,-5.22
2022-12-18T02:40:49.837Z,-5.24
2022-12-18T02:41:49.859Z,-5.23
2022-12-18T02:42:49.923Z,-5.23
2022-12-18T02:43:49.932Z,-5.23
2022-12-18T02:44:49.953Z,-5.26
2022-12-18T02:45:50.041Z,-5.28
2022-12-18T02:46:50.010Z,-5.31
2022-12-18T02:47:50.062Z,-5.29
2022-12-18T02:48:50.078Z,-5.27
2022-12-18T02:49:50.142Z,-5.27
2022-12-18T02:50:50.136Z,-5.28
2022-12-18T02:51:50.175Z,-5.3
2022-12-18T02:52:50.199Z,-5.3
2022-12-18T02:53:50.219Z,-5.32
2022-12-18T02:54:51.401Z,-5.34
2022-12-18T02:55:50.317Z,-5.28
2022-12-18T02:56:50.328Z,-5.27
2022-12-18T02:57:50.356Z,-5.28
2022-12-18T02:58:50.385Z,-5.35
2022-12-18T02:59:50.421Z,-5.32
2022-12-18T03:00:50.504Z,-5.33
2022-12-18T03:01:50.600Z,-5.33
2022-12-18T03:02:50.572Z,-5.33
2022-12-18T03:03:50.540Z,-5.32
2022-12-18T03:04:50.561Z,-5.33
2022-12-18T03:05:50.595Z,-5.33
2022-12-18T03:06:50.633Z,-5.33
2022-12-18T03:07:50.656Z,-5.33
2022-12-18T03:08:50.689Z,-5.32
2022-12-18T03:09:50.722Z,-5.33
2022-12-18T03:10:50.752Z,-5.37
2022-12-18T03:11:50.792Z,-5.33
2022-12-18T03:12:50.851Z,-5.33
2022-12-18T03:13:50.854Z,-5.31
2022-12-18T03:14:50.880Z,-5.36
2022-12-18T03:15:50.906Z,-5.33
2022-12-18T03:16:51.015Z,-5.33
2022-12-18T03:17:50.980Z,-5.36
2022-12-18T03:18:51.008Z,-5.34
2022-12-18T03:19:51.048Z,-5.34
2022-12-18T03:20:51.064Z,-5.3
2022-12-18T03:21:51.106Z,-5.32
2022-12-18T03:22:51.146Z,-5.3
2022-12-18T03:23:51.176Z,-5.32
2022-12-18T03:24:51.200Z,-5.3
2022-12-18T03:25:51.233Z,-5.29
2022-12-18T03:26:51.265Z,-5.3
2022-12-18T03:27:51.318Z,-5.32
2022-12-18T03:28:51.328Z,-5.32
2022-12-18T03:29:51.367Z,-5.33
2022-12-18T03:30:51.478Z,-5.32
2022-12-18T03:31:51.424Z,-5.32
2022-12-18T03:32:51.506Z,-5.29
2022-12-18T03:33:51.488Z,-5.28
2022-12-18T03:34:51.516Z,-5.28
2022-12-18T03:35:51.549Z,-5.3
2022-12-18T03:36:51.585Z,-5.29
2022-12-18T03:37:51.635Z,-5.29
2022-12-18T03:38:51.669Z,-5.29
2022-12-18T03:39:51.669Z,-5.29
2022-12-18T03:40:51.695Z,-5.29
2022-12-18T03:41:51.732Z,-5.28
2022-12-18T03:42:51.763Z,-5.28
2022-12-18T03:43:51.791Z,-5.29
2022-12-18T03:44:51.819Z,-5.29
2022-12-18T03:45:51.882Z,-5.28
2022-12-18T03:46:51.869Z,-5.24
2022-12-18T03:47:51.900Z,-5.25
2022-12-18T03:48:51.921Z,-5.27
2022-12-18T03:49:51.990Z,-5.24
2022-12-18T03:50:51.992Z,-5.24
2022-12-18T03:51:52.030Z,-5.24
2022-12-18T03:52:52.057Z,-5.24
2022-12-18T03:53:52.091Z,-5.24
2022-12-18T03:54:52.145Z,-5.24
2022-12-18T03:55:52.165Z,-5.26
2022-12-18T03:56:52.189Z,-5.26
2022-12-18T03:57:52.219Z,-5.25
2022-12-18T03:58:52.240Z,-5.27
2022-12-18T03:59:52.280Z,-5.24
2022-12-18T04:00:52.329Z,-5.25
2022-12-18T04:01:52.456Z,-5.25
2022-12-18T04:02:52.372Z,-5.25
2022-12-18T04:03:52.468Z,-5.25
2022-12-18T04:04:52.440Z,-5.27
2022-12-18T04:05:52.477Z,-5.26
2022-12-18T04:06:52.521Z,-5.26
2022-12-18T04:07:52.516Z,-5.25
2022-12-18T04:08:52.553Z,-5.23
2022-12-18T04:09:52.587Z,-5.27
2022-12-18T04:10:52.614Z,-5.25
2022-12-18T04:11:52.685Z,-5.23
2022-12-18T04:12:52.670Z,-5.24
2022-12-18T04:13:52.706Z,-5.24
2022-12-18T04:14:52.756Z,-5.25
2022-12-18T04:15:52.898Z,-5.25
2022-12-18T04:16:52.829Z,-5.25
2022-12-18T04:17:52.875Z,-5.25
2022-12-18T04:18:52.882Z,-5.25
2022-12-18T04:19:52.924Z,-5.25
2022-12-18T04:20:52.947Z,-5.25
2022-12-18T04:21:52.984Z,-5.25
2022-12-18T04:22:53.041Z,-5.24
2022-12-18T04:23:53.040Z,-5.26
2022-12-18T04:24:53.072Z,-5.26
2022-12-18T04:25:53.103Z,-5.25
2022-12-18T04:26:53.136Z,-5.25
2022-12-18T04:27:53.183Z,-5.27
2022-12-18T04:28:53.235Z,-5.26
2022-12-18T04:29:53.234Z,-5.26
2022-12-18T04:30:53.312Z,-5.26
2022-12-18T04:31:53.300Z,-5.26
2022-12-18T04:32:53.320Z,-5.26
2022-12-18T04:33:53.365Z,-5.25
2022-12-18T04:34:53.421Z,-5.25
2022-12-18T04:35:53.416Z,-5.24
2022-12-18T04:36:53.439Z,-5.23
2022-12-18T04:37:53.476Z,-5.23
2022-12-18T04:38:53.503Z,-5.24
2022-12-18T04:39:53.568Z,-5.24
2022-12-18T04:40:53.573Z,-5.23
2022-12-18T04:41:53.596Z,-5.22
2022-12-18T04:42:53.668Z,-5.22
2022-12-18T04:43:53.662Z,-5.23
2022-12-18T04:44:53.687Z,-5.23
2022-12-18T04:45:53.711Z,-5.23
2022-12-18T04:46:53.775Z,-5.21
2022-12-18T04:47:53.768Z,-5.21
2022-12-18T04:48:53.825Z,-5.21
2022-12-18T04:49:53.833Z,-5.24
2022-12-18T04:50:53.868Z,-5.3
2022-12-18T04:51:53.896Z,-5.3
2022-12-18T04:52:53.933Z,-5.3
2022-12-18T04:53:53.980Z,-5.3
2022-12-18T04:54:54.025Z,-5.36
2022-12-18T04:55:54.022Z,-5.36
2022-12-18T04:56:54.060Z,-5.31
2022-12-18T04:57:54.099Z,-5.31
2022-12-18T04:58:54.135Z,-5.3
2022-12-18T04:59:54.195Z,-5.3
2022-12-18T05:00:54.186Z,-5.3
2022-12-18T05:01:54.331Z,-5.31
2022-12-18T05:02:54.346Z,-5.31
2022-12-18T05:03:54.309Z,-5.32
2022-12-18T05:04:54.319Z,-5.29
2022-12-18T05:05:54.360Z,-5.29
2022-12-18T05:06:54.379Z,-5.29
2022-12-18T05:07:54.415Z,-5.3
2022-12-18T05:08:54.444Z,-5.35
2022-12-18T05:09:54.474Z,-5.36
2022-12-18T05:10:54.524Z,-5.39
2022-12-18T05:11:54.532Z,-5.37
2022-12-18T05:12:54.565Z,-5.39
2022-12-18T05:13:54.602Z,-5.37
2022-12-18T05:14:54.628Z,-5.38
2022-12-18T05:15:54.698Z,-5.38
2022-12-18T05:16:59.252Z,-5.38
2022-12-18T05:17:54.728Z,-5.43
2022-12-18T05:18:54.784Z,-5.43
2022-12-18T05:19:54.792Z,-5.43
2022-12-18T05:20:54.829Z,-5.43
2022-12-18T05:21:54.855Z,-5.43
2022-12-18T05:22:54.884Z,-5.43
2022-12-18T05:23:54.936Z,-5.42
2022-12-18T05:24:54.972Z,-5.42
2022-12-18T05:25:54.965Z,-5.43
2022-12-18T05:26:55.003Z,-5.43
2022-12-18T05:27:55.045Z,-5.44
2022-12-18T05:28:55.078Z,-5.47
2022-12-18T05:29:55.138Z,-5.46
2022-12-18T05:30:55.213Z,-5.46
2022-12-18T05:31:55.244Z,-5.46
2022-12-18T05:32:55.203Z,-5.45
2022-12-18T05:33:55.233Z,-5.46
2022-12-18T05:34:55.253Z,-5.47
2022-12-18T05:35:55.282Z,-5.47
2022-12-18T05:36:55.320Z,-5.47
2022-12-18T05:37:55.369Z,-5.47
2022-12-18T05:38:55.374Z,-5.5
2022-12-18T05:39:55.406Z,-5.5
2022-12-18T05:40:55.438Z,-5.5
2022-12-18T05:41:55.467Z,-5.48
2022-12-18T05:42:55.507Z,-5.45
2022-12-18T05:43:55.537Z,-5.48
2022-12-18T05:44:55.572Z,-5.48
2022-12-18T05:45:55.621Z,-5.48
2022-12-18T05:46:55.719Z,-5.45
2022-12-18T05:47:55.689Z,-5.44
2022-12-18T05:48:55.706Z,-5.46
2022-12-18T05:49:55.732Z,-5.48
2022-12-18T05:50:55.760Z,-5.46
2022-12-18T05:51:55.791Z,-5.47
2022-12-18T05:52:55.829Z,-5.47
2022-12-18T05:53:55.856Z,-5.52
2022-12-18T05:54:55.886Z,-5.51
2022-12-18T05:55:55.907Z,-5.54
2022-12-18T05:56:55.949Z,-5.55
2022-12-18T05:57:55.971Z,-5.54
2022-12-18T05:58:56.009Z,-5.49
2022-12-18T05:59:56.046Z,-5.49
2022-12-18T06:00:56.072Z,-5.48
2022-12-18T06:01:56.181Z,-5.48
2022-12-18T06:02:56.277Z,-5.48
2022-12-18T06:03:56.342Z,-5.48
2022-12-18T06:04:56.229Z,-5.48
2022-12-18T06:05:56.243Z,-5.49
2022-12-18T06:06:56.268Z,-5.51
2022-12-18T06:07:56.296Z,-5.56
2022-12-18T06:08:56.330Z,-5.51
2022-12-18T06:09:56.351Z,-5.51
2022-12-18T06:10:56.390Z,-5.48
2022-12-18T06:11:56.412Z,-5.47
2022-12-18T06:12:56.437Z,-5.52
2022-12-18T06:13:58.628Z,-5.52
2022-12-18T06:14:56.501Z,-5.5
2022-12-18T06:15:56.586Z,-5.5
2022-12-18T06:16:56.570Z,-5.48
2022-12-18T06:17:56.605Z,-5.48
2022-12-18T06:18:56.626Z,-5.49
2022-12-18T06:19:56.656Z,-5.47
2022-12-18T06:20:56.697Z,-5.45
2022-12-18T06:21:56.719Z,-5.46
2022-12-18T06:22:56.775Z,-5.46
2022-12-18T06:23:56.788Z,-5.47
2022-12-18T06:24:56.817Z,-5.47
2022-12-18T06:25:56.838Z,-5.44
2022-12-18T06:26:56.865Z,-5.42
2022-12-18T06:27:56.916Z,-5.42
2022-12-18T06:28:56.949Z,-5.45
2022-12-18T06:29:56.954Z,-5.45
2022-12-18T06:30:56.994Z,-5.48
2022-12-18T06:31:57.128Z,-5.46
2022-12-18T06:32:57.155Z,-5.48
2022-12-18T06:33:57.104Z,-5.47
2022-12-18T06:34:57.149Z,-5.45
2022-12-18T06:36:01.016Z,-5.44
2022-12-18T06:36:57.190Z,-5.44
2022-12-18T06:37:57.255Z,-5.43
2022-12-18T06:38:57.268Z,-5.43
2022-12-18T06:39:57.296Z,-5.43
2022-12-18T06:40:57.326Z,-5.44
2022-12-18T06:41:57.348Z,-5.44
2022-12-18T06:42:57.385Z,-5.43
2022-12-18T06:43:59.968Z,-5.43
2022-12-18T06:44:57.435Z,-5.42
2022-12-18T06:45:57.525Z,-5.4
2022-12-18T06:46:57.493Z,-5.4
2022-12-18T06:47:57.538Z,-5.4
2022-12-18T06:48:57.586Z,-5.4
2022-12-18T06:49:57.586Z,-5.41
2022-12-18T06:50:57.617Z,-5.41
2022-12-18T06:51:57.645Z,-5.39
2022-12-18T06:52:57.680Z,-5.41
2022-12-18T06:53:57.721Z,-5.41
2022-12-18T06:54:57.752Z,-5.41
2022-12-18T06:55:57.774Z,-5.41
2022-12-18T06:56:57.807Z,-5.4
2022-12-18T06:57:57.842Z,-5.41
2022-12-18T06:58:57.854Z,-5.4
2022-12-18T06:59:57.882Z,-5.4
2022-12-18T07:00:57.938Z,-5.39
2022-12-18T07:01:58.116Z,-5.37
2022-12-18T07:02:58.071Z,-5.37
2022-12-18T07:03:58.004Z,-5.37
2022-12-18T07:04:58.036Z,-5.37
2022-12-18T07:05:58.065Z,-5.37
2022-12-18T07:06:58.100Z,-5.37
2022-12-18T07:07:58.128Z,-5.36
2022-12-18T07:08:58.199Z,-5.36
2022-12-18T07:09:58.199Z,-5.36
2022-12-18T07:10:58.238Z,-5.36
2022-12-18T07:11:58.245Z,-5.34
2022-12-18T07:12:58.268Z,-5.35
2022-12-18T07:13:58.308Z,-5.35
2022-12-18T07:14:58.325Z,-5.37
2022-12-18T07:15:58.410Z,-5.37
2022-12-18T07:16:58.469Z,-5.35
2022-12-18T07:17:58.421Z,-5.35
2022-12-18T07:18:58.454Z,-5.32
2022-12-18T07:19:58.487Z,-5.35
2022-12-18T07:20:58.513Z,-5.36
2022-12-18T07:21:58.551Z,-5.36
2022-12-18T07:22:58.581Z,-5.36
2022-12-18T07:23:58.605Z,-5.35
2022-12-18T07:24:58.650Z,-5.33
2022-12-18T07:25:58.672Z,-5.32
2022-12-18T07:26:58.701Z,-5.32
2022-12-18T07:27:58.735Z,-5.3
2022-12-18T07:28:58.758Z,-5.3
2022-12-18T07:29:58.801Z,-5.29
2022-12-18T07:30:58.828Z,-5.3
2022-12-18T07:31:58.950Z,-5.3
2022-12-18T07:32:58.891Z,-5.28
2022-12-18T07:33:58.925Z,-5.28
2022-12-18T07:34:58.957Z,-5.28
2022-12-18T07:35:58.984Z,-5.3
2022-12-18T07:36:59.013Z,-5.29
2022-12-18T07:37:59.072Z,-5.29
2022-12-18T07:38:59.076Z,-5.28
2022-12-18T07:39:59.109Z,-5.26
2022-12-18T07:40:59.142Z,-5.26
2022-12-18T07:41:59.173Z,-5.22
2022-12-18T07:42:59.236Z,-5.22
2022-12-18T07:43:59.236Z,-5.22
2022-12-18T07:44:59.261Z,-5.22
2022-12-18T07:45:59.337Z,-5.21
2022-12-18T07:46:59.334Z,-5.22
2022-12-18T07:47:59.367Z,-5.18
2022-12-18T07:48:59.386Z,-5.16
2022-12-18T07:49:59.446Z,-5.16
2022-12-18T07:50:59.439Z,-5.16
2022-12-18T07:51:59.483Z,-5.15
2022-12-18T07:52:59.498Z,-5.15
2022-12-18T07:53:59.531Z,-5.15
2022-12-18T07:54:59.592Z,-5.14
2022-12-18T07:56:25.056Z,-5.15
2022-12-18T07:56:59.621Z,-5.15
2022-12-18T07:58:01.256Z,-5.15
2022-12-18T07:58:59.678Z,-5.14
2022-12-18T07:59:59.722Z,-5.12
2022-12-18T08:00:59.799Z,-5.12
2022-12-18T08:01:59.980Z,-5.12
2022-12-18T08:02:59.950Z,-5.12
2022-12-18T08:03:59.838Z,-5.09
2022-12-18T08:04:59.860Z,-5.07
2022-12-18T08:05:59.897Z,-5.09
2022-12-18T08:06:59.931Z,-5.09
2022-12-18T08:07:59.949Z,-5.09
2022-12-18T08:08:59.983Z,-5.09
2022-12-18T08:10:00.042Z,-5.09
2022-12-18T08:11:00.053Z,-5.05
2022-12-18T08:12:00.085Z,-5.06
2022-12-18T08:13:04.840Z,-5.06
2022-12-18T08:14:00.155Z,-5.04
2022-12-18T08:15:00.184Z,-5.02
2022-12-18T08:16:00.202Z,-4.99
2022-12-18T08:17:00.311Z,-4.99
2022-12-18T08:18:00.278Z,-4.99
2022-12-18T08:19:00.286Z,-4.92
2022-12-18T08:20:00.310Z,-4.92
2022-12-18T08:21:00.346Z,-4.92
2022-12-18T08:22:00.367Z,-4.92
2022-12-18T08:23:00.445Z,-4.93
2022-12-18T08:24:00.435Z,-4.98
2022-12-18T08:25:00.472Z,-4.98
2022-12-18T08:26:00.487Z,-4.98
2022-12-18T08:27:28.345Z,-4.96
2022-12-18T08:28:00.561Z,-4.97
2022-12-18T08:29:00.577Z,-4.97
2022-12-18T08:30:00.610Z,-4.98
2022-12-18T08:31:00.720Z,-4.98
2022-12-18T08:32:00.721Z,-4.98
2022-12-18T08:33:00.689Z,-4.89
2022-12-18T08:34:00.717Z,-4.87
2022-12-18T08:35:00.730Z,-4.87
2022-12-18T08:36:00.768Z,-4.87
2022-12-18T08:37:00.813Z,-4.87
2022-12-18T08:38:00.846Z,-4.87
2022-12-18T08:39:00.861Z,-4.85
2022-12-18T08:40:00.882Z,-4.85
2022-12-18T08:41:00.915Z,-4.85
2022-12-18T08:42:03.075Z,-4.86
2022-12-18T08:43:01.020Z,-4.85
2022-12-18T08:44:01.012Z,-4.86
2022-12-18T08:45:01.045Z,-4.86
2022-12-18T08:46:01.158Z,-4.85
2022-12-18T08:47:01.119Z,-4.84
2022-12-18T08:48:01.155Z,-4.84
2022-12-18T08:49:01.163Z,-4.84
2022-12-18T08:50:01.258Z,-4.83
2022-12-18T08:51:01.226Z,-4.78
2022-12-18T08:52:01.253Z,-4.79
2022-12-18T08:53:01.284Z,-4.78
2022-12-18T08:54:01.319Z,-4.77
2022-12-18T08:55:01.375Z,-4.72
2022-12-18T08:56:01.484Z,-4.7
2022-12-18T08:57:01.415Z,-4.71
2022-12-18T08:58:01.442Z,-4.71
2022-12-18T08:59:01.471Z,-4.74
2022-12-18T09:00:01.496Z,-4.69
2022-12-18T09:01:01.603Z,-4.69
2022-12-18T09:02:01.872Z,-4.69
2022-12-18T09:03:01.743Z,-4.67
2022-12-18T09:04:01.636Z,-4.67
2022-12-18T09:05:01.674Z,-4.67
2022-12-18T09:06:01.703Z,-4.67
2022-12-18T09:07:01.735Z,-4.64
2022-12-18T09:08:01.786Z,-4.66
2022-12-18T09:09:01.793Z,-4.66
2022-12-18T09:10:01.820Z,-4.66
2022-12-18T09:11:01.854Z,-4.61
2022-12-18T09:12:01.891Z,-4.62
2022-12-18T09:13:01.954Z,-4.59
2022-12-18T09:14:01.947Z,-4.59
2022-12-18T09:15:01.981Z,-4.59
2022-12-18T09:16:02.012Z,-4.58
2022-12-18T09:17:02.228Z,-4.58
2022-12-18T09:18:02.081Z,-4.56
2022-12-18T09:19:02.097Z,-4.56
2022-12-18T09:20:02.131Z,-4.56
2022-12-18T09:21:02.165Z,-4.56
2022-12-18T09:22:02.199Z,-4.55
2022-12-18T09:23:02.241Z,-4.54
2022-12-18T09:24:02.265Z,-4.55
2022-12-18T09:25:02.301Z,-4.54
2022-12-18T09:26:02.326Z,-4.54
2022-12-18T09:27:02.358Z,-4.54
2022-12-18T09:28:02.427Z,-4.54
2022-12-18T09:29:02.420Z,-4.5
2022-12-18T09:30:02.443Z,-4.51
2022-12-18T09:31:02.546Z,-4.46
2022-12-18T09:32:02.525Z,-4.46
2022-12-18T09:33:02.667Z,-4.46
2022-12-18T09:34:02.594Z,-4.46
2022-12-18T09:35:02.631Z,-4.5
2022-12-18T09:36:02.660Z,-4.5
2022-12-18T09:37:02.684Z,-4.5
2022-12-18T09:38:02.729Z,-4.51
2022-12-18T09:39:07.561Z,-4.51
2022-12-18T09:40:02.792Z,-4.5
2022-12-18T09:41:02.799Z,-4.46
2022-12-18T09:42:02.833Z,-4.44
2022-12-18T09:43:02.873Z,-4.44
2022-12-18T09:44:02.907Z,-4.47
2022-12-18T09:45:02.979Z,-4.44
2022-12-18T09:46:03.089Z,-4.44
2022-12-18T09:47:02.987Z,-4.44
2022-12-18T09:48:03.011Z,-4.42
2022-12-18T09:49:03.050Z,-4.43
2022-12-18T09:50:03.077Z,-4.44
2022-12-18T09:51:03.570Z,-4.45
2022-12-18T09:52:03.142Z,-4.44
2022-12-18T09:53:03.175Z,-4.41
2022-12-18T09:54:03.208Z,-4.43
2022-12-18T09:55:03.239Z,-4.34
2022-12-18T09:56:03.275Z,-4.34
2022-12-18T09:57:03.292Z,-4.34
2022-12-18T09:58:03.361Z,-4.32
2022-12-18T09:59:03.367Z,-4.3
2022-12-18T10:00:03.394Z,-4.32
2022-12-18T10:01:03.422Z,-4.37
2022-12-18T10:02:03.599Z,-4.37
2022-12-18T10:03:03.678Z,-4.35
2022-12-18T10:04:03.580Z,-4.34
2022-12-18T10:05:03.551Z,-4.34
2022-12-18T10:06:03.599Z,-4.33
2022-12-18T10:07:08.970Z,-4.33
2022-12-18T10:08:03.680Z,-4.33
2022-12-18T10:09:03.690Z,-4.27
2022-12-18T10:10:03.723Z,-4.24
2022-12-18T10:11:03.753Z,-4.24
2022-12-18T10:12:03.781Z,-4.24
2022-12-18T10:13:04.883Z,-4.24
2022-12-18T10:14:03.841Z,-4.23
2022-12-18T10:15:03.868Z,-4.23
2022-12-18T10:16:03.961Z,-4.23
2022-12-18T10:17:03.933Z,-4.23
2022-12-18T10:18:03.978Z,-4.18
2022-12-18T10:19:03.982Z,-4.18
2022-12-18T10:20:04.012Z,-4.18
2022-12-18T10:21:04.046Z,-4.19
2022-12-18T10:22:04.075Z,-4.17
2022-12-18T10:23:04.127Z,-4.17
2022-12-18T10:24:04.148Z,-4.16
2022-12-18T10:25:04.172Z,-4.16
2022-12-18T10:26:04.212Z,-4.15
2022-12-18T10:27:04.233Z,-4.15
2022-12-18T10:28:04.290Z,-4.16
2022-12-18T10:29:05.856Z,-4.15
2022-12-18T10:30:04.358Z,-4.14
2022-12-18T10:31:04.450Z,-4.14
2022-12-18T10:32:04.406Z,-4.13
2022-12-18T10:33:04.445Z,-4.12
2022-12-18T10:34:04.476Z,-4.13
2022-12-18T10:35:04.522Z,-4.12
2022-12-18T10:36:04.591Z,-4.09
2022-12-18T10:37:04.578Z,-4.06
2022-12-18T10:38:04.609Z,-4.06
2022-12-18T10:39:04.641Z,-4.07
2022-12-18T10:40:04.667Z,-4.04
2022-12-18T10:41:04.728Z,-4.04
2022-12-18T10:42:04.736Z,-4.04
2022-12-18T10:43:04.768Z,-4.06
2022-12-18T10:44:04.797Z,-4.05
2022-12-18T10:45:04.829Z,-4.03
2022-12-18T10:46:04.934Z,-4
2022-12-18T10:47:08.749Z,-3.99
2022-12-18T10:48:04.943Z,-3.97
2022-12-18T10:49:04.960Z,-4
2022-12-18T10:50:04.987Z,-3.96
2022-12-18T10:51:12.675Z,-3.9
2022-12-18T10:52:05.047Z,-3.88
2022-12-18T10:53:05.176Z,-3.88
2022-12-18T10:54:06.273Z,-3.88
2022-12-18T10:55:05.150Z,-3.86
2022-12-18T10:56:05.182Z,-3.86
2022-12-18T10:57:05.214Z,-3.87
2022-12-18T10:58:05.271Z,-3.88
2022-12-18T10:59:05.810Z,-3.88
2022-12-18T11:00:05.336Z,-3.88
2022-12-18T11:01:05.347Z,-3.9
2022-12-18T11:02:05.503Z,-3.9
2022-12-18T11:03:05.622Z,-3.89
2022-12-18T11:04:05.547Z,-3.87
2022-12-18T11:05:05.537Z,-3.87
2022-12-18T11:06:05.573Z,-3.88
2022-12-18T11:07:05.532Z,-3.89
2022-12-18T11:08:05.553Z,-3.93
2022-12-18T11:09:13.231Z,-3.93
2022-12-18T11:10:05.623Z,-3.93
2022-12-18T11:11:05.701Z,-3.96
2022-12-18T11:12:05.684Z,-3.98
2022-12-18T11:13:05.722Z,-3.98
2022-12-18T11:14:05.768Z,-3.97
2022-12-18T11:15:05.783Z,-3.96
2022-12-18T11:16:05.874Z,-3.96
2022-12-18T11:17:26.522Z,-3.95
2022-12-18T11:18:05.903Z,-3.98
2022-12-18T11:19:05.922Z,-3.97
2022-12-18T11:20:05.950Z,-3.97
2022-12-18T11:21:05.978Z,-3.96
2022-12-18T11:22:05.999Z,-3.96
2022-12-18T11:23:06.083Z,-3.92
2022-12-18T11:24:06.061Z,-3.95
2022-12-18T11:25:32.358Z,-3.94
2022-12-18T11:26:06.132Z,-3.9
2022-12-18T11:27:06.164Z,-3.9
2022-12-18T11:28:06.249Z,-3.94
2022-12-18T11:29:06.214Z,-3.96
2022-12-18T11:30:06.265Z,-3.92
2022-12-18T11:31:06.294Z,-3.9
2022-12-18T11:32:06.293Z,-3.89
2022-12-18T11:33:06.329Z,-3.88
2022-12-18T11:34:28.611Z,-3.85
2022-12-18T11:35:06.404Z,-3.86
2022-12-18T11:36:06.431Z,-3.87
2022-12-18T11:37:06.439Z,-3.86
2022-12-18T11:38:06.467Z,-3.87
2022-12-18T11:39:06.505Z,-3.86
2022-12-18T11:40:06.532Z,-3.86
2022-12-18T11:41:06.596Z,-3.82
2022-12-18T11:42:06.603Z,-3.81
2022-12-18T11:43:06.640Z,-3.81
2022-12-18T11:44:06.681Z,-3.83
2022-12-18T11:45:06.713Z,-3.84
2022-12-18T11:46:06.864Z,-3.85
2022-12-18T11:47:06.836Z,-3.82
2022-12-18T11:48:06.831Z,-3.79
2022-12-18T11:49:06.836Z,-3.83
2022-12-18T11:50:06.867Z,-3.83
2022-12-18T11:51:06.889Z,-3.76
2022-12-18T11:52:06.924Z,-3.75
2022-12-18T11:53:06.986Z,-3.67
2022-12-18T11:54:06.978Z,-3.68
2022-12-18T11:55:07.003Z,-3.68
2022-12-18T11:56:07.029Z,-3.67
2022-12-18T11:57:07.064Z,-3.67
2022-12-18T11:58:07.106Z,-3.68
2022-12-18T11:59:07.126Z,-3.68
2022-12-18T12:00:07.184Z,-3.7
2022-12-18T12:01:07.187Z,-3.7
2022-12-18T12:02:07.302Z,-3.71
2022-12-18T12:03:07.304Z,-3.74
2022-12-18T12:04:07.340Z,-3.7
2022-12-18T12:05:07.337Z,-3.61
2022-12-18T12:06:07.358Z,-3.62
2022-12-18T12:07:07.372Z,-3.62
2022-12-18T12:08:07.392Z,-3.59
2022-12-18T12:09:07.422Z,-3.6
2022-12-18T12:10:07.451Z,-3.6
2022-12-18T12:11:07.701Z,-3.58
2022-12-18T12:12:07.527Z,-3.53
2022-12-18T12:13:07.553Z,-3.51
2022-12-18T12:14:07.596Z,-3.52
2022-12-18T12:15:07.624Z,-3.53
2022-12-18T12:16:07.711Z,-3.53
2022-12-18T12:17:07.687Z,-3.48
2022-12-18T12:18:11.304Z,-3.51
2022-12-18T12:19:07.750Z,-3.51
2022-12-18T12:20:07.804Z,-3.55
2022-12-18T12:21:07.804Z,-3.51
2022-12-18T12:22:07.836Z,-3.51
2022-12-18T12:23:07.866Z,-3.52
2022-12-18T12:24:07.894Z,-3.48
2022-12-18T12:25:07.959Z,-3.47
2022-12-18T12:26:07.961Z,-3.47
2022-12-18T12:27:07.972Z,-3.47
2022-12-18T12:28:08.000Z,-3.45
2022-12-18T12:29:10.502Z,-3.46
2022-12-18T12:30:08.778Z,-3.45
2022-12-18T12:31:08.201Z,-3.45
2022-12-18T12:32:08.139Z,-3.45
2022-12-18T12:33:08.170Z,-3.45
2022-12-18T12:34:08.213Z,-3.45
2022-12-18T12:35:09.986Z,-3.45
2022-12-18T12:36:08.279Z,-3.44
2022-12-18T12:37:08.338Z,-3.44
2022-12-18T12:38:08.351Z,-3.45
2022-12-18T12:39:08.380Z,-3.44
2022-12-18T12:40:41.194Z,-3.45
2022-12-18T12:41:08.447Z,-3.45
2022-12-18T12:42:08.494Z,-3.44
2022-12-18T12:43:08.535Z,-3.43
2022-12-18T12:44:08.531Z,-3.43
2022-12-18T12:45:08.560Z,-3.43
2022-12-18T12:46:08.640Z,-3.43
2022-12-18T12:47:08.636Z,-3.43
2022-12-18T12:48:08.689Z,-3.43
2022-12-18T12:49:08.693Z,-3.44
2022-12-18T12:50:08.737Z,-3.35
2022-12-18T12:51:08.839Z,-3.35
2022-12-18T12:52:08.797Z,-3.34
2022-12-18T12:53:08.840Z,-3.33
2022-12-18T12:54:08.874Z,-3.33
2022-12-18T12:55:14.453Z,-3.33
2022-12-18T12:56:08.948Z,-3.35